Time;durP1;ratioP1;P1;durP2;ratioP2;P2;SDS_P1;SDS_P2;PMS_P1;PMS_P2;Temp;Humidity;BMP_temperature;BMP_pressure;BME280_temperature;BME280_humidity;BME280_pressure;Samples;Min_cycle;Max_cycle;Signal;HPM_P1;HPM_P2
2022/04/26 03:36:15;;;;;;;77.03;41.10;;;;;;;;;;7386247;19;20035;-76
2022/04/26 03:38:47;;;;;;;68.80;38.77;;;;;;;;;;7377851;19;20070;-76
2022/04/26 03:41:12;;;;;;;64.32;38.13;;;;;;;;;;7386397;19;20251;-76
2022/04/26 03:43:37;;;;;;;69.60;38.10;;;;;;;;;;7383860;19;20078;-76
2022/04/26 03:46:03;;;;;;;67.70;38.42;;;;;;;;;;7381446;19;20010;-76
2022/04/26 03:48:28;;;;;;;72.90;40.03;;;;;;;;;;7380887;19;20126;-78
2022/04/26 03:50:53;;;;;;;76.93;42.90;;;;;;;;;;7385635;19;20604;-76
2022/04/26 03:53:18;;;;;;;71.00;39.45;;;;;;;;;;7384161;19;20019;-76
2022/04/26 03:55:44;;;;;;;71.30;40.08;;;;;;;;;;7381897;19;20462;-76
2022/04/26 03:58:09;;;;;;;71.70;39.03;;;;;;;;;;7382155;19;20025;-76
2022/04/26 04:00:34;;;;;;;69.15;36.88;;;;;;;;;;7379111;19;20027;-77
2022/04/26 04:03:00;;;;;;;68.93;37.58;;;;;;;;;;7383561;19;20053;-77
2022/04/26 04:05:25;;;;;;;66.10;36.67;;;;;;;;;;7381661;19;20010;-79
2022/04/26 04:07:50;;;;;;;62.20;35.37;;;;;;;;;;7383165;19;20013;-76
2022/04/26 04:10:16;;;;;;;64.38;36.40;;;;;;;;;;7379638;19;20312;-76
2022/04/26 04:12:41;;;;;;;62.72;34.25;;;;;;;;;;7383956;19;19995;-76
2022/04/26 04:15:06;;;;;;;62.63;34.67;;;;;;;;;;7378650;19;20011;-77
2022/04/26 04:17:32;;;;;;;71.45;38.25;;;;;;;;;;7378941;19;20275;-77
2022/04/26 04:19:57;;;;;;;67.93;38.07;;;;;;;;;;7381257;19;20493;-76
2022/04/26 04:22:22;;;;;;;66.22;37.08;;;;;;;;;;7381750;19;20255;-76
2022/04/26 04:24:47;;;;;;;64.18;35.95;;;;;;;;;;7378980;19;20409;-76
2022/04/26 04:27:12;;;;;;;71.85;37.17;;;;;;;;;;7379895;19;20518;-76
2022/04/26 04:29:37;;;;;;;71.93;37.63;;;;;;;;;;7377800;19;20019;-79
2022/04/26 04:32:03;;;;;;;64.95;36.90;;;;;;;;;;7382159;19;20782;-77
2022/04/26 04:34:29;;;;;;;73.05;39.08;;;;;;;;;;7383067;19;20011;-77
2022/04/26 04:36:54;;;;;;;69.85;37.58;;;;;;;;;;7382725;19;20444;-76
2022/04/26 04:39:20;;;;;;;73.50;37.37;;;;;;;;;;7375707;19;19998;-77
2022/04/26 04:41:46;;;;;;;67.80;36.58;;;;;;;;;;7381393;19;20306;-76
2022/04/26 04:44:11;;;;;;;68.68;37.88;;;;;;;;;;7376550;19;20007;-79
2022/04/26 04:46:36;;;;;;;71.63;38.10;;;;;;;;;;7370054;19;20341;-77
2022/04/26 04:49:02;;;;;;;71.50;38.10;;;;;;;;;;7381607;19;20302;-76
2022/04/26 04:51:28;;;;;;;73.63;38.08;;;;;;;;;;7384582;19;20007;-77
2022/04/26 04:53:53;;;;;;;76.55;37.90;;;;;;;;;;7386276;19;20014;-77
2022/04/26 04:56:18;;;;;;;77.63;38.58;;;;;;;;;;7387423;19;20027;-77
2022/04/26 04:58:43;;;;;;;75.47;37.33;;;;;;;;;;7380973;19;20012;-78
2022/04/26 05:01:08;;;;;;;75.65;37.13;;;;;;;;;;7383179;19;20010;-78
2022/04/26 05:03:34;;;;;;;73.93;36.03;;;;;;;;;;7381193;19;20359;-76
2022/04/26 05:05:59;;;;;;;71.88;36.00;;;;;;;;;;7382003;19;20251;-78
2022/04/26 05:08:27;;;;;;;72.55;36.38;;;;;;;;;;7385177;19;20011;-77
2022/04/26 05:10:52;;;;;;;71.13;36.65;;;;;;;;;;7382637;19;20534;-77
2022/04/26 05:13:18;;;;;;;74.63;37.40;;;;;;;;;;7382579;19;20037;-76
2022/04/26 05:15:44;;;;;;;66.55;34.25;;;;;;;;;;7383613;19;20051;-76
2022/04/26 05:18:10;;;;;;;67.43;33.65;;;;;;;;;;7386785;19;20354;-76
2022/04/26 05:20:36;;;;;;;65.78;34.55;;;;;;;;;;7383577;19;20085;-77
2022/04/26 05:25:45;;;;;;;68.15;34.67;;;;;;;;;;7371372;19;20077;-77
2022/04/26 05:28:11;;;;;;;64.28;35.05;;;;;;;;;;7384294;19;20006;-76
2022/04/26 05:30:36;;;;;;;68.05;35.30;;;;;;;;;;7380161;19;20035;-77
2022/04/26 05:33:01;;;;;;;65.55;34.78;;;;;;;;;;7382894;19;20014;-79
2022/04/26 05:35:26;;;;;;;73.55;37.33;;;;;;;;;;7386396;19;20015;-77
2022/04/26 05:37:52;;;;;;;67.13;35.53;;;;;;;;;;7381818;19;20010;-76
2022/04/26 05:40:17;;;;;;;79.55;37.63;;;;;;;;;;7383324;19;20030;-76
2022/04/26 05:42:42;;;;;;;74.30;36.90;;;;;;;;;;7388026;19;20010;-76
2022/04/26 05:45:07;;;;;;;72.03;37.60;;;;;;;;;;7385271;19;20243;-76
2022/04/26 05:47:33;;;;;;;73.30;37.33;;;;;;;;;;7383522;19;20007;-76
2022/04/26 05:49:58;;;;;;;68.80;36.47;;;;;;;;;;7377481;19;20011;-77
2022/04/26 05:52:24;;;;;;;74.57;39.08;;;;;;;;;;7382982;19;20120;-78
2022/04/26 05:54:49;;;;;;;73.68;38.42;;;;;;;;;;7383410;19;20493;-78
2022/04/26 05:57:15;;;;;;;70.32;34.88;;;;;;;;;;7380463;19;19999;-75
2022/04/26 05:59:40;;;;;;;72.40;35.97;;;;;;;;;;7371967;19;20485;-76
2022/04/26 06:02:05;;;;;;;64.37;35.97;;;;;;;;;;7382790;19;20347;-76
2022/04/26 06:04:30;;;;;;;71.30;36.28;;;;;;;;;;7386982;19;20605;-78
2022/04/26 06:06:56;;;;;;;65.38;35.13;;;;;;;;;;7383374;19;20025;-76
2022/04/26 06:09:21;;;;;;;70.68;36.78;;;;;;;;;;7385072;19;20014;-77
2022/04/26 06:11:46;;;;;;;65.57;34.77;;;;;;;;;;7386045;19;20521;-77
2022/04/26 06:14:11;;;;;;;68.68;36.65;;;;;;;;;;7389429;19;20310;-76
2022/04/26 06:16:36;;;;;;;66.67;35.07;;;;;;;;;;7382700;19;20090;-76
2022/04/26 06:19:02;;;;;;;65.90;35.00;;;;;;;;;;7386159;19;20307;-76
2022/04/26 06:21:27;;;;;;;69.13;35.72;;;;;;;;;;7386713;19;20263;-77
2022/04/26 06:23:52;;;;;;;67.43;35.10;;;;;;;;;;7384861;19;20010;-76
2022/04/26 06:26:17;;;;;;;65.87;35.27;;;;;;;;;;7383645;19;20302;-77
2022/04/26 06:28:43;;;;;;;73.78;37.63;;;;;;;;;;7387592;19;20240;-76
2022/04/26 06:31:08;;;;;;;71.13;35.70;;;;;;;;;;7382922;19;20036;-76
2022/04/26 06:33:34;;;;;;;69.10;36.03;;;;;;;;;;7383405;19;20395;-77
2022/04/26 06:36:00;;;;;;;66.28;34.15;;;;;;;;;;7385981;19;20003;-76
2022/04/26 06:38:25;;;;;;;67.68;34.85;;;;;;;;;;7382875;19;19998;-78
2022/04/26 06:40:51;;;;;;;72.38;36.33;;;;;;;;;;7380786;19;20014;-76
2022/04/26 06:43:17;;;;;;;69.70;35.35;;;;;;;;;;7387451;19;20546;-76
2022/04/26 06:45:44;;;;;;;70.40;35.50;;;;;;;;;;7380888;19;20015;-76
2022/04/26 06:48:10;;;;;;;75.50;37.42;;;;;;;;;;7383402;19;20244;-76
2022/04/26 06:50:35;;;;;;;70.78;36.90;;;;;;;;;;7385005;19;20010;-77
2022/04/26 06:53:00;;;;;;;77.68;37.67;;;;;;;;;;7386930;19;20033;-77
2022/04/26 06:55:26;;;;;;;64.45;35.33;;;;;;;;;;7383002;19;20625;-76
2022/04/26 06:57:51;;;;;;;63.28;34.45;;;;;;;;;;7384517;19;19998;-77
2022/04/26 07:00:16;;;;;;;66.13;33.63;;;;;;;;;;7382309;19;20031;-76
2022/04/26 07:02:41;;;;;;;60.00;31.65;;;;;;;;;;7383880;19;20658;-76
2022/04/26 07:05:07;;;;;;;60.65;31.77;;;;;;;;;;7384890;19;19999;-78
2022/04/26 07:07:32;;;;;;;60.67;31.58;;;;;;;;;;7379815;19;20038;-76
2022/04/26 07:09:57;;;;;;;57.38;30.67;;;;;;;;;;7378881;19;19991;-78
2022/04/26 07:12:22;;;;;;;57.13;29.00;;;;;;;;;;7380848;19;20450;-77
2022/04/26 07:14:48;;;;;;;55.80;29.50;;;;;;;;;;7382362;19;20240;-76
2022/04/26 07:17:13;;;;;;;49.47;27.98;;;;;;;;;;7384732;19;20019;-77
2022/04/26 07:19:39;;;;;;;48.87;26.20;;;;;;;;;;7385222;19;20015;-76
2022/04/26 07:22:05;;;;;;;47.67;26.48;;;;;;;;;;7386576;19;20253;-76
2022/04/26 07:24:31;;;;;;;51.40;26.88;;;;;;;;;;7381911;19;20014;-76
2022/04/26 07:26:56;;;;;;;48.65;24.85;;;;;;;;;;7383963;19;20596;-76
2022/04/26 07:29:21;;;;;;;49.85;24.98;;;;;;;;;;7385468;19;20002;-79
2022/04/26 07:31:46;;;;;;;46.90;25.10;;;;;;;;;;7377710;19;20013;-77
2022/04/26 07:34:21;;;;;;;45.55;24.05;;;;;;;;;;7383397;19;20579;-76
2022/04/26 07:36:49;;;;;;;44.40;24.58;;;;;;;;;;7385266;19;20014;-76
2022/04/26 07:39:17;;;;;;;49.88;25.25;;;;;;;;;;7379523;19;20055;-77
2022/04/26 07:41:42;;;;;;;53.70;26.17;;;;;;;;;;7383352;19;20023;-76
2022/04/26 07:44:08;;;;;;;51.85;27.60;;;;;;;;;;7384051;19;20013;-76
2022/04/26 07:46:33;;;;;;;55.63;27.25;;;;;;;;;;7380540;19;20010;-76
2022/04/26 07:48:58;;;;;;;52.88;25.58;;;;;;;;;;7383708;19;20010;-76
2022/04/26 07:51:23;;;;;;;50.40;26.33;;;;;;;;;;7379882;19;20014;-76
2022/04/26 07:53:49;;;;;;;47.08;23.70;;;;;;;;;;7382791;19;20010;-76
2022/04/26 07:56:14;;;;;;;48.35;24.40;;;;;;;;;;7382070;19;20003;-76
2022/04/26 07:58:39;;;;;;;49.28;25.27;;;;;;;;;;7378741;19;21017;-77
2022/04/26 08:01:05;;;;;;;44.58;22.30;;;;;;;;;;7378196;19;20037;-76
2022/04/26 08:03:32;;;;;;;41.80;22.33;;;;;;;;;;7382917;19;19999;-76
2022/04/26 08:05:57;;;;;;;38.42;20.05;;;;;;;;;;7381161;19;20615;-76
2022/04/26 08:08:23;;;;;;;39.80;21.20;;;;;;;;;;7376189;19;20015;-77
2022/04/26 08:10:49;;;;;;;39.10;21.83;;;;;;;;;;7377345;19;20471;-76
2022/04/26 08:13:14;;;;;;;37.47;19.30;;;;;;;;;;7381968;19;20010;-77
2022/04/26 08:15:39;;;;;;;32.75;16.83;;;;;;;;;;7378282;19;20383;-77
2022/04/26 08:18:05;;;;;;;29.83;17.00;;;;;;;;;;7383122;19;20054;-77
2022/04/26 08:20:30;;;;;;;25.90;14.90;;;;;;;;;;7383956;19;20014;-76
2022/04/26 08:22:56;;;;;;;30.55;15.77;;;;;;;;;;7380356;19;19999;-78
2022/04/26 08:28:05;;;;;;;21.42;13.10;;;;;;;;;;7383226;19;20027;-77
2022/04/26 08:30:30;;;;;;;22.23;12.80;;;;;;;;;;7381187;19;20011;-76
2022/04/26 08:32:55;;;;;;;21.95;12.27;;;;;;;;;;7384987;19;20031;-77
2022/04/26 08:35:21;;;;;;;25.17;13.57;;;;;;;;;;7384469;19;20338;-77
2022/04/26 08:37:47;;;;;;;23.02;13.18;;;;;;;;;;7381151;19;20015;-76
2022/04/26 08:40:12;;;;;;;23.33;13.30;;;;;;;;;;7378924;19;20457;-76
2022/04/26 08:42:39;;;;;;;22.73;12.18;;;;;;;;;;7383170;19;20410;-77
2022/04/26 08:45:06;;;;;;;21.13;12.25;;;;;;;;;;7382707;19;19995;-76
2022/04/26 08:52:59;;;;;;;24.75;13.95;;;;;;;;;;7384410;19;20489;-76
2022/04/26 08:55:24;;;;;;;24.17;13.98;;;;;;;;;;7380223;19;20432;-77
2022/04/26 08:57:49;;;;;;;22.98;13.10;;;;;;;;;;7382979;19;19999;-77
2022/04/26 09:00:15;;;;;;;20.13;12.00;;;;;;;;;;7378272;19;20007;-76
2022/04/26 09:02:40;;;;;;;19.10;12.10;;;;;;;;;;7378837;19;20011;-78
2022/04/26 09:05:13;;;;;;;19.77;11.47;;;;;;;;;;7383724;19;19995;-76
2022/04/26 09:07:40;;;;;;;19.27;11.48;;;;;;;;;;7364565;19;20775;-76
2022/04/26 09:10:09;;;;;;;18.50;11.65;;;;;;;;;;7376943;19;20108;-78
2022/04/26 09:12:53;;;;;;;17.45;10.98;;;;;;;;;;7373960;19;20006;-76
2022/04/26 09:15:18;;;;;;;19.52;11.40;;;;;;;;;;7372158;19;20102;-77
2022/04/26 09:17:44;;;;;;;19.85;11.70;;;;;;;;;;7380636;19;20466;-76
2022/04/26 09:20:09;;;;;;;19.63;11.02;;;;;;;;;;7378558;19;20078;-76
2022/04/26 09:22:34;;;;;;;19.15;11.95;;;;;;;;;;7384004;19;20661;-76
2022/04/26 09:25:03;;;;;;;21.60;12.32;;;;;;;;;;7377868;19;20506;-77
2022/04/26 09:27:29;;;;;;;20.92;11.85;;;;;;;;;;7381901;19;20002;-77
2022/04/26 09:29:54;;;;;;;20.77;12.52;;;;;;;;;;7376796;19;20026;-76
2022/04/26 09:32:19;;;;;;;19.90;12.68;;;;;;;;;;7381821;19;20058;-77
2022/04/26 09:34:45;;;;;;;23.40;14.43;;;;;;;;;;7384095;19;20507;-76
2022/04/26 09:37:12;;;;;;;25.95;15.52;;;;;;;;;;7390057;19;20332;-77
2022/04/26 09:39:39;;;;;;;23.85;15.48;;;;;;;;;;7384888;19;20018;-76
2022/04/26 09:42:04;;;;;;;26.80;17.08;;;;;;;;;;7389598;19;20014;-76
2022/04/26 09:44:30;;;;;;;33.40;19.98;;;;;;;;;;7386245;19;20022;-76
2022/04/26 09:46:56;;;;;;;37.63;19.90;;;;;;;;;;7388077;19;19991;-76
2022/04/26 09:49:21;;;;;;;31.88;19.90;;;;;;;;;;7391085;19;20011;-77
2022/04/26 09:51:49;;;;;;;32.00;19.08;;;;;;;;;;7382329;19;20020;-76
2022/04/26 09:54:14;;;;;;;31.40;19.27;;;;;;;;;;7390317;19;20073;-76
2022/04/26 09:56:43;;;;;;;31.33;20.30;;;;;;;;;;7388619;19;20023;-76
2022/04/26 09:59:11;;;;;;;32.40;18.63;;;;;;;;;;7386224;19;20018;-76
2022/04/26 10:01:41;;;;;;;34.72;20.05;;;;;;;;;;7384889;19;20100;-77
2022/04/26 10:04:08;;;;;;;34.03;20.65;;;;;;;;;;7388888;19;20014;-77
2022/04/26 10:06:37;;;;;;;30.58;18.48;;;;;;;;;;7384444;19;20397;-76
2022/04/26 10:09:03;;;;;;;30.30;17.33;;;;;;;;;;7384672;19;20028;-76
2022/04/26 10:11:29;;;;;;;23.33;14.45;;;;;;;;;;7386177;19;19999;-76
2022/04/26 10:13:54;;;;;;;23.52;13.65;;;;;;;;;;7385456;19;20007;-76
2022/04/26 10:16:21;;;;;;;20.48;12.60;;;;;;;;;;7384734;19;20001;-77
2022/04/26 10:18:49;;;;;;;21.95;13.02;;;;;;;;;;7385064;19;20009;-77
2022/04/26 10:21:20;;;;;;;21.55;12.60;;;;;;;;;;7388258;19;20017;-76
2022/04/26 10:23:52;;;;;;;19.45;12.35;;;;;;;;;;7387841;19;20441;-77
2022/04/26 10:26:23;;;;;;;23.75;12.90;;;;;;;;;;7384869;19;20335;-77
2022/04/26 10:28:54;;;;;;;24.80;14.77;;;;;;;;;;7384968;19;20003;-78
2022/04/26 10:31:39;;;;;;;27.10;15.80;;;;;;;;;;7385517;19;20070;-77
2022/04/26 10:34:27;;;;;;;23.70;15.15;;;;;;;;;;7379217;19;20566;-76
2022/04/26 10:36:54;;;;;;;32.53;18.70;;;;;;;;;;7385403;19;20029;-76
2022/04/26 10:39:26;;;;;;;31.63;18.15;;;;;;;;;;7383429;19;20019;-77
2022/04/26 10:41:52;;;;;;;29.67;17.25;;;;;;;;;;7382397;19;20664;-77
2022/04/26 10:44:17;;;;;;;33.72;19.73;;;;;;;;;;7386358;19;20082;-77
2022/04/26 10:46:43;;;;;;;32.90;19.53;;;;;;;;;;7378482;19;20015;-77
2022/04/26 10:49:21;;;;;;;36.05;19.67;;;;;;;;;;7386644;19;20247;-77
2022/04/26 10:51:46;;;;;;;34.33;19.98;;;;;;;;;;7383250;19;20010;-77
2022/04/26 10:54:11;;;;;;;34.10;20.45;;;;;;;;;;7385800;19;19995;-77
2022/04/26 10:56:36;;;;;;;39.80;20.90;;;;;;;;;;7380385;19;20006;-77
2022/04/26 10:59:10;;;;;;;34.90;20.50;;;;;;;;;;7383949;19;20617;-77
2022/04/26 11:01:35;;;;;;;40.85;20.88;;;;;;;;;;7381287;19;20274;-77
2022/04/26 11:04:01;;;;;;;35.83;20.50;;;;;;;;;;7385574;19;20011;-77
2022/04/26 11:06:33;;;;;;;38.88;20.83;;;;;;;;;;7380082;19;20036;-77
2022/04/26 11:09:05;;;;;;;37.95;20.60;;;;;;;;;;7383906;19;20024;-77
2022/04/26 11:11:44;;;;;;;42.92;22.60;;;;;;;;;;7382661;19;19995;-77
2022/04/26 11:14:10;;;;;;;38.45;21.02;;;;;;;;;;7385991;19;20022;-77
2022/04/26 11:16:35;;;;;;;35.97;21.37;;;;;;;;;;7377402;19;20109;-77
2022/04/26 11:19:01;;;;;;;36.97;21.23;;;;;;;;;;7376411;19;20291;-77
2022/04/26 11:21:26;;;;;;;40.03;22.73;;;;;;;;;;7382492;19;20263;-77
2022/04/26 11:29:34;;;;;;;44.45;24.33;;;;;;;;;;7382556;19;20017;-78
2022/04/26 17:47:43;;;;;;;20.33;14.10;;;;;;;;;;7335187;19;20022;-77
2022/04/26 17:50:08;;;;;;;23.58;15.43;;;;;;;;;;7366529;19;20390;-79
2022/04/26 17:56:28;;;;;;;21.65;15.27;;;;;;;;;;7377314;19;20010;-77
2022/04/26 17:58:03;;;;;;;21.20;14.43;;;;;;;;;;7377355;19;20019;-77
2022/04/26 18:00:29;;;;;;;23.02;13.85;;;;;;;;;;7375029;19;20320;-76
2022/04/26 18:02:54;;;;;;;18.90;13.00;;;;;;;;;;7375656;19;20427;-77
2022/04/26 18:05:19;;;;;;;14.48;10.10;;;;;;;;;;7372845;19;20018;-78
2022/04/26 18:07:45;;;;;;;15.48;10.13;;;;;;;;;;7380625;19;20149;-77
2022/04/26 18:10:10;;;;;;;16.43;9.13;;;;;;;;;;7382311;19;20002;-78
2022/04/26 18:12:37;;;;;;;21.10;10.20;;;;;;;;;;7374124;19;20264;-77
2022/04/26 18:15:02;;;;;;;14.68;9.50;;;;;;;;;;7378872;19;20750;-77
2022/04/26 18:17:27;;;;;;;15.02;9.52;;;;;;;;;;7382272;19;20002;-77
2022/04/26 18:19:54;;;;;;;16.10;10.15;;;;;;;;;;7384607;19;20015;-76
2022/04/26 18:22:19;;;;;;;15.13;9.77;;;;;;;;;;7375394;19;20043;-76
2022/04/26 18:24:45;;;;;;;16.23;10.03;;;;;;;;;;7383247;19;20007;-77
2022/04/26 18:27:10;;;;;;;17.35;10.32;;;;;;;;;;7384977;19;20239;-77
2022/04/26 18:29:36;;;;;;;17.53;10.67;;;;;;;;;;7380915;19;20494;-77
2022/04/26 18:32:01;;;;;;;16.38;10.98;;;;;;;;;;7372274;19;20310;-77
2022/04/26 18:34:26;;;;;;;13.60;9.88;;;;;;;;;;7377534;19;20074;-76
2022/04/26 18:36:52;;;;;;;16.37;10.37;;;;;;;;;;7384547;19;20107;-76
2022/04/26 18:39:17;;;;;;;17.10;11.05;;;;;;;;;;7384205;19;20783;-77
2022/04/26 18:41:43;;;;;;;15.55;10.07;;;;;;;;;;7383682;19;20365;-76
2022/04/26 18:44:08;;;;;;;18.08;12.23;;;;;;;;;;7380216;19;20023;-77
2022/04/26 18:46:33;;;;;;;19.17;12.90;;;;;;;;;;7380879;19;20070;-78
2022/04/26 18:48:59;;;;;;;19.50;13.63;;;;;;;;;;7380318;19;20364;-77
2022/04/26 18:51:24;;;;;;;23.93;15.43;;;;;;;;;;7380352;19;20243;-77
2022/04/26 18:53:49;;;;;;;23.02;14.02;;;;;;;;;;7373631;19;20579;-77
2022/04/26 18:56:15;;;;;;;23.15;15.68;;;;;;;;;;7387733;19;20505;-77
2022/04/26 18:58:40;;;;;;;24.52;17.35;;;;;;;;;;7382965;19;20014;-78
2022/04/26 19:01:06;;;;;;;26.90;18.45;;;;;;;;;;7381834;19;20018;-77
2022/04/26 19:03:31;;;;;;;28.10;18.55;;;;;;;;;;7384688;19;19998;-79
2022/04/26 19:05:57;;;;;;;30.85;20.58;;;;;;;;;;7387173;19;20039;-77
2022/04/26 19:08:22;;;;;;;28.98;18.65;;;;;;;;;;7379889;19;20014;-77
2022/04/26 19:13:32;;;;;;;29.40;19.73;;;;;;;;;;7384218;19;20491;-76
2022/04/26 19:15:59;;;;;;;28.85;19.42;;;;;;;;;;7374100;19;20014;-76
2022/04/26 19:18:24;;;;;;;26.83;19.65;;;;;;;;;;7376101;19;20339;-76
2022/04/26 19:20:49;;;;;;;29.67;20.20;;;;;;;;;;7369251;19;20477;-77
2022/04/26 19:23:15;;;;;;;29.10;19.35;;;;;;;;;;7376292;19;19995;-77
2022/04/26 19:25:40;;;;;;;30.90;21.42;;;;;;;;;;7363175;19;20003;-77
2022/04/26 19:28:05;;;;;;;29.02;20.23;;;;;;;;;;7379654;19;20024;-78
2022/04/26 19:30:30;;;;;;;27.75;20.85;;;;;;;;;;7374097;19;20066;-77
2022/04/26 19:32:56;;;;;;;27.95;20.67;;;;;;;;;;7367841;19;20017;-78
2022/04/26 19:35:21;;;;;;;28.97;21.67;;;;;;;;;;7359824;19;20006;-79
2022/04/26 19:37:46;;;;;;;26.70;18.77;;;;;;;;;;7369708;19;20577;-77
2022/04/26 19:40:11;;;;;;;29.83;20.52;;;;;;;;;;7372453;19;20035;-77
2022/04/26 19:42:37;;;;;;;30.33;20.75;;;;;;;;;;7362822;19;20008;-78
2022/04/26 19:45:02;;;;;;;27.88;19.77;;;;;;;;;;7357859;19;20018;-77
2022/04/26 19:47:27;;;;;;;26.25;19.67;;;;;;;;;;7355123;19;20210;-77
2022/04/26 19:52:36;;;;;;;28.90;20.52;;;;;;;;;;7377439;19;20492;-78
2022/04/26 19:55:02;;;;;;;28.17;20.27;;;;;;;;;;7373740;19;20007;-78
2022/04/26 19:57:28;;;;;;;27.42;19.10;;;;;;;;;;7374421;19;20007;-77
2022/04/26 19:59:55;;;;;;;31.30;21.08;;;;;;;;;;7375743;19;20010;-77
2022/04/26 20:02:20;;;;;;;30.80;21.42;;;;;;;;;;7368252;19;20413;-76
2022/04/26 20:04:46;;;;;;;30.30;21.23;;;;;;;;;;7372034;19;20477;-77
2022/04/26 20:07:11;;;;;;;30.95;20.90;;;;;;;;;;7372270;19;20284;-78
2022/04/26 20:09:37;;;;;;;29.97;21.77;;;;;;;;;;7376988;19;20495;-77
2022/04/26 20:12:02;;;;;;;30.75;21.58;;;;;;;;;;7374098;19;20247;-77
2022/04/26 20:14:27;;;;;;;28.20;20.42;;;;;;;;;;7364606;19;20021;-78
2022/04/26 20:16:54;;;;;;;35.93;24.33;;;;;;;;;;7371223;19;20439;-77
2022/04/26 20:19:20;;;;;;;37.30;23.77;;;;;;;;;;7366202;19;20586;-79
2022/04/26 20:21:45;;;;;;;35.90;23.17;;;;;;;;;;7368491;19;20013;-78
2022/04/26 20:24:11;;;;;;;35.45;25.67;;;;;;;;;;7373986;19;20474;-77
2022/04/26 20:32:05;;;;;;;35.17;23.48;;;;;;;;;;7364925;19;20055;-78
2022/04/26 20:34:30;;;;;;;33.60;22.23;;;;;;;;;;7369947;19;20010;-78
2022/04/26 20:36:55;;;;;;;31.80;22.20;;;;;;;;;;7366456;19;20015;-77
2022/04/26 20:39:20;;;;;;;33.92;22.35;;;;;;;;;;7361681;19;20231;-77
2022/04/26 20:41:46;;;;;;;32.35;21.65;;;;;;;;;;7366801;19;20354;-77
2022/04/26 20:44:12;;;;;;;27.23;18.53;;;;;;;;;;7372900;19;20007;-78
2022/04/26 20:46:37;;;;;;;34.58;23.42;;;;;;;;;;7368967;19;20279;-77
2022/04/26 20:49:02;;;;;;;31.83;22.20;;;;;;;;;;7367998;19;20534;-77
2022/04/26 20:51:27;;;;;;;34.90;21.50;;;;;;;;;;7375882;19;20259;-77
2022/04/26 20:53:52;;;;;;;33.20;22.73;;;;;;;;;;7371398;19;20006;-78
2022/04/26 20:56:18;;;;;;;31.40;21.95;;;;;;;;;;7369438;19;20292;-74
2022/04/26 20:58:43;;;;;;;33.35;21.67;;;;;;;;;;7368553;19;20367;-79
2022/04/26 21:01:08;;;;;;;35.53;22.90;;;;;;;;;;7365916;19;20015;-78
2022/04/26 21:03:34;;;;;;;34.38;22.92;;;;;;;;;;7369806;19;20443;-78
2022/04/26 21:05:59;;;;;;;34.22;21.88;;;;;;;;;;7374246;19;20065;-77
2022/04/26 21:08:24;;;;;;;40.93;22.27;;;;;;;;;;7378046;19;20477;-77
2022/04/26 21:10:50;;;;;;;28.65;20.42;;;;;;;;;;7380467;19;20610;-78
2022/04/26 21:13:24;;;;;;;28.33;20.83;;;;;;;;;;7380258;19;20007;-78
2022/04/26 21:15:49;;;;;;;31.52;21.80;;;;;;;;;;7376913;19;20614;-77
2022/04/26 21:18:15;;;;;;;29.58;18.33;;;;;;;;;;7378951;19;20250;-77
2022/04/26 21:20:40;;;;;;;31.40;20.40;;;;;;;;;;7380102;19;20027;-78
2022/04/26 21:23:05;;;;;;;26.90;20.25;;;;;;;;;;7378060;19;20067;-76
2022/04/26 21:25:31;;;;;;;27.85;19.58;;;;;;;;;;7377385;19;19999;-79
2022/04/26 21:27:56;;;;;;;30.90;21.60;;;;;;;;;;7376877;19;20014;-78
2022/04/26 21:30:21;;;;;;;33.17;22.05;;;;;;;;;;7380946;19;20015;-78
2022/04/26 21:32:47;;;;;;;30.10;19.70;;;;;;;;;;7388003;19;20021;-79
2022/04/26 21:35:12;;;;;;;31.02;21.05;;;;;;;;;;7389050;19;20504;-77
2022/04/26 21:37:37;;;;;;;30.10;19.70;;;;;;;;;;7362873;19;20011;-76
2022/04/26 21:40:03;;;;;;;28.97;20.07;;;;;;;;;;7376137;19;20480;-75
2022/04/26 21:42:28;;;;;;;28.33;19.33;;;;;;;;;;7388582;19;20223;-76
2022/04/26 21:44:53;;;;;;;30.55;20.45;;;;;;;;;;7365683;19;20039;-76
2022/04/26 21:47:18;;;;;;;30.35;19.83;;;;;;;;;;7370713;19;20538;-79
2022/04/26 21:52:31;;;;;;;30.85;19.95;;;;;;;;;;7383266;19;20406;-77
2022/04/26 21:54:56;;;;;;;26.50;19.15;;;;;;;;;;7386601;19;20007;-77
2022/04/26 21:57:21;;;;;;;29.37;19.90;;;;;;;;;;7389204;19;19999;-75
2022/04/26 21:59:46;;;;;;;30.08;19.55;;;;;;;;;;7384485;19;20823;-76
2022/04/26 22:02:12;;;;;;;29.08;18.48;;;;;;;;;;7339596;19;20479;-77
2022/04/26 22:04:37;;;;;;;23.95;17.77;;;;;;;;;;7373121;19;20009;-79
2022/04/26 22:07:02;;;;;;;33.17;20.17;;;;;;;;;;7380460;19;20007;-78
2022/04/26 22:09:32;;;;;;;26.80;16.80;;;;;;;;;;7376351;19;20251;-76
2022/04/26 22:11:57;;;;;;;28.60;17.67;;;;;;;;;;7380624;19;20417;-76
2022/04/26 22:14:23;;;;;;;26.05;18.00;;;;;;;;;;7383756;19;20019;-77
2022/04/26 22:16:48;;;;;;;28.92;17.88;;;;;;;;;;7377052;19;20018;-76
2022/04/26 22:19:13;;;;;;;26.20;17.63;;;;;;;;;;7378998;19;20255;-76
2022/04/26 22:21:38;;;;;;;25.73;17.30;;;;;;;;;;7384005;19;20252;-76
2022/04/26 22:24:04;;;;;;;30.10;18.92;;;;;;;;;;7385568;19;20235;-78
2022/04/26 22:26:29;;;;;;;25.70;17.90;;;;;;;;;;7384827;19;20011;-78
2022/04/26 22:28:54;;;;;;;27.95;17.70;;;;;;;;;;7382163;19;20077;-81
2022/04/26 22:31:19;;;;;;;29.35;18.70;;;;;;;;;;7378355;19;20023;-79
2022/04/26 22:33:45;;;;;;;26.98;18.13;;;;;;;;;;7379844;19;20060;-77
2022/04/26 22:36:11;;;;;;;29.88;18.25;;;;;;;;;;7378896;19;20081;-76
2022/04/26 22:38:36;;;;;;;26.63;17.92;;;;;;;;;;7379378;19;20512;-78
2022/04/26 22:41:01;;;;;;;29.75;19.23;;;;;;;;;;7382654;19;20373;-77
2022/04/26 22:43:26;;;;;;;29.37;18.50;;;;;;;;;;7376913;19;19999;-81
2022/04/26 22:45:51;;;;;;;28.48;17.33;;;;;;;;;;7375976;19;20806;-79
2022/04/26 22:48:17;;;;;;;27.88;17.58;;;;;;;;;;7381786;19;20394;-76
2022/04/26 22:50:42;;;;;;;28.88;18.40;;;;;;;;;;7384008;19;20108;-76
2022/04/26 22:53:08;;;;;;;28.35;17.10;;;;;;;;;;7379171;19;20340;-76
2022/04/26 22:55:34;;;;;;;31.53;17.13;;;;;;;;;;7378578;19;20331;-77
2022/04/26 22:57:59;;;;;;;29.55;19.20;;;;;;;;;;7381663;19;20247;-77
2022/04/26 23:00:24;;;;;;;24.73;16.77;;;;;;;;;;7379342;19;20426;-77
2022/04/26 23:02:50;;;;;;;26.90;17.23;;;;;;;;;;7376830;19;19999;-77
2022/04/26 23:05:15;;;;;;;27.43;17.93;;;;;;;;;;7381809;19;20251;-76
2022/04/26 23:07:41;;;;;;;25.03;17.40;;;;;;;;;;7381748;19;20255;-78
2022/04/26 23:10:07;;;;;;;25.63;17.65;;;;;;;;;;7377873;19;20252;-77
2022/04/26 23:12:33;;;;;;;33.80;19.45;;;;;;;;;;7381724;19;20102;-80
2022/04/26 23:14:58;;;;;;;27.55;18.58;;;;;;;;;;7374562;19;20463;-76
2022/04/26 23:17:23;;;;;;;25.60;17.30;;;;;;;;;;7380946;19;20011;-79
2022/04/26 23:19:49;;;;;;;30.67;17.77;;;;;;;;;;7382662;19;20006;-76
2022/04/26 23:22:14;;;;;;;30.33;17.73;;;;;;;;;;7383051;19;20037;-76
2022/04/26 23:24:39;;;;;;;28.30;18.60;;;;;;;;;;7377219;19;20256;-78
2022/04/26 23:27:05;;;;;;;29.60;18.87;;;;;;;;;;7378676;19;20010;-78
2022/04/26 23:29:30;;;;;;;31.05;20.55;;;;;;;;;;7380651;19;20269;-78
2022/04/26 23:31:55;;;;;;;31.30;19.08;;;;;;;;;;7378579;19;20011;-77
2022/04/26 23:37:04;;;;;;;27.70;18.60;;;;;;;;;;7382634;19;20247;-76
2022/04/26 23:39:29;;;;;;;29.92;18.70;;;;;;;;;;7376163;19;20034;-75
2022/04/26 23:41:54;;;;;;;26.23;16.83;;;;;;;;;;7381187;19;20381;-75
2022/04/26 23:44:20;;;;;;;25.00;17.05;;;;;;;;;;7381940;19;20102;-75
2022/04/26 23:46:46;;;;;;;27.08;16.88;;;;;;;;;;7371967;19;20014;-76
2022/04/26 23:49:11;;;;;;;26.75;17.55;;;;;;;;;;7376250;19;20007;-77
2022/04/26 23:54:21;;;;;;;26.33;15.27;;;;;;;;;;7379259;19;20021;-77
2022/04/26 23:56:46;;;;;;;25.73;16.80;;;;;;;;;;7377233;19;20366;-75
2022/04/26 23:59:11;;;;;;;28.37;18.47;;;;;;;;;;7378204;19;20674;-76
